createdAt,value
2019-05-18T00:00:24.218Z,99.90
2019-05-18T00:04:27.662Z,99.90
2019-05-18T00:08:31.089Z,99.90
2019-05-18T00:12:34.555Z,99.90
2019-05-18T00:16:38.249Z,99.90
2019-05-18T00:20:41.998Z,99.90
2019-05-18T00:24:45.449Z,99.90
2019-05-18T00:28:48.983Z,99.90
2019-05-18T00:32:52.694Z,99.90
2019-05-18T00:36:56.147Z,99.90
2019-05-18T00:40:59.834Z,99.90
2019-05-18T00:45:04.054Z,99.90
2019-05-18T00:49:07.503Z,99.90
2019-05-18T00:53:11.312Z,99.90
2019-05-18T00:57:14.761Z,99.70
2019-05-18T01:01:18.222Z,99.50
2019-05-18T01:05:21.661Z,99.90
2019-05-18T01:09:25.147Z,99.90
2019-05-18T01:13:28.596Z,99.90
2019-05-18T01:17:32.038Z,98.80
2019-05-18T01:21:35.746Z,99.00
2019-05-18T01:25:39.221Z,99.90
2019-05-18T01:29:43.003Z,99.90
2019-05-18T01:33:46.704Z,99.90
2019-05-18T01:37:50.149Z,99.80
2019-05-18T01:41:53.601Z,99.90
2019-05-18T01:45:57.058Z,99.40
2019-05-18T01:50:00.520Z,99.90
2019-05-18T01:54:04.143Z,99.90
2019-05-18T01:58:07.611Z,98.90
2019-05-18T02:02:11.338Z,99.70
2019-05-18T02:06:14.800Z,99.30
2019-05-18T02:10:18.501Z,98.80
2019-05-18T02:14:21.955Z,99.70
2019-05-18T02:18:29.088Z,99.50
2019-05-18T02:22:30.586Z,98.90
2019-05-18T02:26:34.056Z,99.10
2019-05-18T02:30:37.486Z,99.70
2019-05-18T02:34:40.923Z,99.90
2019-05-18T02:38:44.373Z,99.40
2019-05-18T02:42:47.841Z,99.80
2019-05-18T02:46:51.402Z,99.90
2019-05-18T02:50:54.909Z,99.90
2019-05-18T02:54:58.542Z,99.90
2019-05-18T02:59:02.397Z,99.90
2019-05-18T03:03:05.901Z,99.90
2019-05-18T03:07:09.363Z,99.90
2019-05-18T03:11:12.818Z,99.90
2019-05-18T03:15:16.357Z,99.90
2019-05-18T03:19:20.143Z,99.90
2019-05-18T03:23:24.327Z,99.90
2019-05-18T03:27:27.778Z,99.90
2019-05-18T03:31:31.239Z,99.90
2019-05-18T03:35:34.951Z,99.60
2019-05-18T03:39:38.401Z,99.90
2019-05-18T03:43:42.132Z,99.90
2019-05-18T03:47:45.646Z,99.80
2019-05-18T03:51:49.111Z,99.90
2019-05-18T03:55:52.562Z,99.90
2019-05-18T03:59:56.266Z,99.90
2019-05-18T04:03:59.742Z,99.90
2019-05-18T04:08:03.173Z,99.90
2019-05-18T04:12:07.056Z,99.90
2019-05-18T04:16:10.746Z,99.90
2019-05-18T04:20:14.205Z,99.90
2019-05-18T04:24:17.755Z,99.90
2019-05-18T04:28:21.287Z,99.90
2019-05-18T04:32:24.734Z,99.90
2019-05-18T04:36:28.457Z,99.90
2019-05-18T04:40:31.907Z,99.90
2019-05-18T04:44:35.403Z,99.90
2019-05-18T04:48:39.097Z,99.90
2019-05-18T04:52:42.572Z,99.90
2019-05-18T04:56:46.028Z,99.90
2019-05-18T05:00:52.426Z,99.90
2019-05-18T05:04:56.860Z,99.90
2019-05-18T05:09:00.743Z,99.90
2019-05-18T05:13:04.329Z,99.90
2019-05-18T05:17:08.211Z,99.90
2019-05-18T05:21:12.098Z,99.90
2019-05-18T05:25:15.763Z,99.90
2019-05-18T05:29:19.646Z,99.90
2019-05-18T05:33:23.434Z,99.90
2019-05-18T05:37:26.885Z,99.90
2019-05-18T05:41:30.589Z,99.90
2019-05-18T05:45:34.556Z,99.60
2019-05-18T05:49:38.023Z,99.40
2019-05-18T05:53:41.512Z,99.40
2019-05-18T05:57:45.026Z,98.80
2019-05-18T06:01:48.738Z,98.80
2019-05-18T06:05:52.188Z,98.50
2019-05-18T06:09:55.899Z,97.90
2019-05-18T06:13:59.354Z,99.00
2019-05-18T06:18:02.819Z,97.60
2019-05-18T06:22:06.524Z,96.30
2019-05-18T06:26:10.007Z,96.20
2019-05-18T06:30:13.666Z,95.70
2019-05-18T06:34:17.129Z,95.20
2019-05-18T06:38:20.592Z,95.30
2019-05-18T06:42:24.033Z,93.90
2019-05-18T06:46:27.517Z,94.40
2019-05-18T06:50:31.458Z,93.20
2019-05-18T06:54:35.182Z,92.20
2019-05-18T06:58:39.205Z,90.90
2019-05-18T07:02:42.669Z,92.40
2019-05-18T07:06:46.166Z,89.90
2019-05-18T07:10:49.634Z,90.70
2019-05-18T07:14:53.103Z,90.30
2019-05-18T07:18:56.689Z,90.70
2019-05-18T07:23:00.144Z,90.40
2019-05-18T07:27:03.615Z,88.60
2019-05-18T07:31:07.097Z,86.40
2019-05-18T07:35:12.271Z,86.30
2019-05-18T07:39:16.015Z,83.60
2019-05-18T07:43:19.470Z,85.20
2019-05-18T07:47:22.931Z,80.30
2019-05-18T07:51:36.714Z,81.50
2019-05-18T07:55:32.131Z,82.00
2019-05-18T07:59:35.650Z,80.00
2019-05-18T08:03:39.131Z,82.10
2019-05-18T08:07:42.629Z,77.20
2019-05-18T08:11:46.106Z,77.90
2019-05-18T08:15:49.857Z,77.70
2019-05-18T08:19:53.582Z,75.30
2019-05-18T08:23:57.041Z,79.00
2019-05-18T08:28:00.506Z,72.80
2019-05-18T08:32:03.970Z,69.60
2019-05-18T08:36:07.432Z,70.80
2019-05-18T08:40:11.229Z,72.80
2019-05-18T08:44:14.995Z,73.20
2019-05-18T08:48:18.466Z,69.10
2019-05-18T08:52:22.434Z,67.50
2019-05-18T08:56:25.898Z,69.70
2019-05-18T09:00:29.715Z,68.80
2019-05-18T09:04:33.165Z,68.20
2019-05-18T09:08:36.654Z,71.90
2019-05-18T09:12:40.290Z,69.60
2019-05-18T09:16:44.003Z,68.80
2019-05-18T09:20:47.466Z,68.20
2019-05-18T09:24:51.170Z,72.10
2019-05-18T09:28:54.927Z,65.30
2019-05-18T09:32:58.373Z,66.90
2019-05-18T09:37:01.920Z,67.90
2019-05-18T09:41:05.427Z,67.30
2019-05-18T09:45:10.023Z,65.60
2019-05-18T09:49:13.476Z,61.90
2019-05-18T09:53:16.946Z,65.40
2019-05-18T09:57:20.441Z,68.10
2019-05-18T10:01:24.228Z,66.50
2019-05-18T10:05:27.702Z,69.30
2019-05-18T10:09:38.824Z,67.10
2019-05-18T10:13:36.503Z,60.50
2019-05-18T10:17:39.965Z,60.50
2019-05-18T10:21:43.732Z,60.10
2019-05-18T10:25:47.491Z,59.70
2019-05-18T10:29:51.013Z,64.10
2019-05-18T10:33:54.499Z,61.00
2019-05-18T10:37:57.955Z,63.00
2019-05-18T10:42:01.666Z,60.40
2019-05-18T10:46:05.152Z,63.00
2019-05-18T10:50:09.621Z,59.60
2019-05-18T10:54:13.102Z,59.20
2019-05-18T10:58:16.578Z,56.60
2019-05-18T11:02:20.034Z,59.70
2019-05-18T11:06:23.724Z,61.00
2019-05-18T11:10:27.258Z,57.70
2019-05-18T11:14:30.820Z,61.60
2019-05-18T11:18:34.270Z,60.10
2019-05-18T11:22:37.737Z,57.20
2019-05-18T11:26:41.181Z,58.80
2019-05-18T11:30:44.637Z,58.30
2019-05-18T11:34:48.156Z,56.30
2019-05-18T11:38:51.632Z,56.30
2019-05-18T11:42:55.092Z,56.80
2019-05-18T11:46:59.569Z,56.90
2019-05-18T11:51:03.016Z,58.90
2019-05-18T11:55:08.216Z,58.60
2019-05-18T11:59:15.373Z,57.00
2019-05-18T12:03:16.864Z,57.80
2019-05-18T12:07:20.394Z,56.30
2019-05-18T12:11:23.863Z,55.40
2019-05-18T12:15:27.654Z,57.00
2019-05-18T12:19:31.387Z,57.90
2019-05-18T12:23:34.868Z,55.10
2019-05-18T12:27:38.529Z,56.10
2019-05-18T12:31:42.342Z,57.80
2019-05-18T12:35:45.859Z,56.90
2019-05-18T12:39:49.668Z,59.10
2019-05-18T12:43:53.118Z,54.50
2019-05-18T12:47:56.598Z,57.40
2019-05-18T12:52:00.046Z,55.80
2019-05-18T12:56:03.491Z,55.90
2019-05-18T13:00:09.962Z,56.00
2019-05-18T13:04:13.435Z,56.10
2019-05-18T13:08:16.886Z,55.50
2019-05-18T13:12:20.662Z,55.50
2019-05-18T13:16:24.120Z,58.60
2019-05-18T13:20:28.083Z,57.00
2019-05-18T13:24:44.249Z,55.90
2019-05-18T13:28:37.236Z,55.70
2019-05-18T13:32:40.998Z,55.00
2019-05-18T13:36:44.575Z,54.20
2019-05-18T13:40:48.152Z,53.50
2019-05-18T13:44:51.695Z,53.80
2019-05-18T13:48:55.280Z,54.70
2019-05-18T13:52:58.870Z,57.70
2019-05-18T13:57:02.380Z,56.90
2019-05-18T14:01:05.844Z,56.20
2019-05-18T14:05:09.742Z,53.10
2019-05-18T14:09:13.311Z,54.60
2019-05-18T14:13:16.874Z,53.80
2019-05-18T14:17:20.466Z,52.90
2019-05-18T14:21:24.330Z,56.50
2019-05-18T14:25:28.015Z,53.20
2019-05-18T14:29:34.305Z,53.80
2019-05-18T14:33:38.207Z,55.00
2019-05-18T14:37:41.804Z,51.90
2019-05-18T14:41:45.322Z,52.90
2019-05-18T14:45:49.522Z,52.80
2019-05-18T14:49:53.289Z,51.10
2019-05-18T14:53:56.897Z,51.90
2019-05-18T14:58:00.470Z,51.20
2019-05-18T15:02:04.076Z,52.90
2019-05-18T15:06:07.986Z,52.00
2019-05-18T15:10:13.242Z,51.70
2019-05-18T15:14:17.777Z,53.80
2019-05-18T15:18:21.398Z,49.80
2019-05-18T15:22:24.998Z,51.20
2019-05-18T15:26:28.740Z,50.50
2019-05-18T15:30:32.327Z,51.70
2019-05-18T15:34:36.228Z,51.90
2019-05-18T15:38:39.813Z,51.10
2019-05-18T15:42:43.367Z,50.20
2019-05-18T15:46:46.965Z,50.80
2019-05-18T15:50:50.864Z,51.50
2019-05-18T15:54:54.447Z,51.10
2019-05-18T15:59:00.011Z,53.00
2019-05-18T16:03:02.852Z,51.70
2019-05-18T16:07:06.750Z,50.70
2019-05-18T16:11:10.331Z,50.10
2019-05-18T16:15:14.253Z,48.90
2019-05-18T16:19:17.919Z,50.50
2019-05-18T16:23:21.374Z,48.20
2019-05-18T16:27:25.152Z,49.50
2019-05-18T16:31:28.930Z,52.60
2019-05-18T16:35:32.399Z,53.00
2019-05-18T16:39:35.851Z,51.20
2019-05-18T16:43:39.298Z,50.60
2019-05-18T16:47:42.839Z,52.10
2019-05-18T16:51:46.451Z,53.10
2019-05-18T16:55:50.032Z,52.40
2019-05-18T16:59:53.960Z,52.50
2019-05-18T17:03:57.639Z,52.20
2019-05-18T17:08:01.333Z,51.80
2019-05-18T17:12:05.155Z,53.20
2019-05-18T17:16:09.916Z,53.80
2019-05-18T17:20:13.847Z,53.20
2019-05-18T17:24:17.706Z,54.40
2019-05-18T17:28:21.675Z,53.80
2019-05-18T17:32:25.346Z,56.90
2019-05-18T17:36:31.683Z,55.80
2019-05-18T17:40:35.383Z,55.80
2019-05-18T17:44:40.273Z,56.80
2019-05-18T17:48:43.817Z,57.20
2019-05-18T17:52:47.645Z,58.40
2019-05-18T17:56:51.150Z,60.00
2019-05-18T18:00:54.647Z,60.20
2019-05-18T18:04:58.222Z,62.10
2019-05-18T18:09:01.696Z,60.60
2019-05-18T18:13:05.554Z,61.90
2019-05-18T18:17:10.906Z,70.50
2019-05-18T18:21:15.450Z,78.40
2019-05-18T18:25:19.134Z,82.20
2019-05-18T18:29:22.990Z,84.40
2019-05-18T18:33:26.586Z,85.90
2019-05-18T18:37:30.544Z,86.90
2019-05-18T18:41:34.139Z,87.90
2019-05-18T18:45:37.706Z,88.00
2019-05-18T18:49:41.707Z,88.10
2019-05-18T18:53:45.187Z,89.70
2019-05-18T18:57:48.757Z,91.00
2019-05-18T19:01:52.260Z,91.50
2019-05-18T19:05:55.786Z,91.50
2019-05-18T19:09:59.287Z,91.70
2019-05-18T19:14:03.326Z,91.50
2019-05-18T19:18:07.102Z,91.60
2019-05-18T19:22:10.648Z,91.70
2019-05-18T19:26:14.329Z,91.80
2019-05-18T19:30:18.325Z,92.10
2019-05-18T19:34:22.421Z,91.80
2019-05-18T19:38:26.388Z,92.30
2019-05-18T19:42:30.017Z,92.10
2019-05-18T19:46:33.630Z,92.10
2019-05-18T19:50:37.552Z,92.60
2019-05-18T19:54:41.067Z,92.90
2019-05-18T19:58:44.748Z,93.40
2019-05-18T20:02:48.719Z,93.30
2019-05-18T20:06:52.609Z,93.60
2019-05-18T20:10:56.696Z,94.20
2019-05-18T20:15:00.433Z,93.70
2019-05-18T20:19:04.203Z,93.70
2019-05-18T20:23:08.720Z,94.60
2019-05-18T20:27:12.410Z,94.30
2019-05-18T20:31:16.231Z,94.20
2019-05-18T20:35:20.101Z,94.30
2019-05-18T20:39:24.659Z,94.50
2019-05-18T20:43:28.279Z,94.60
2019-05-18T20:47:32.131Z,94.90
2019-05-18T20:51:35.778Z,95.20
2019-05-18T20:55:39.397Z,94.80
2019-05-18T20:59:43.337Z,94.80
2019-05-18T21:03:46.882Z,95.10
2019-05-18T21:07:50.334Z,95.40
2019-05-18T21:11:53.815Z,95.80
2019-05-18T21:15:57.506Z,95.80
2019-05-18T21:20:01.290Z,95.50
2019-05-18T21:24:04.924Z,95.50
2019-05-18T21:28:09.369Z,95.20
2019-05-18T21:32:13.092Z,95.60
2019-05-18T21:36:16.814Z,95.90
2019-05-18T21:40:20.267Z,96.60
2019-05-18T21:44:24.034Z,96.60
2019-05-18T21:48:27.494Z,96.80
2019-05-18T21:52:30.951Z,96.50
2019-05-18T21:56:34.674Z,96.30
2019-05-18T22:00:38.410Z,96.50
2019-05-18T22:04:41.864Z,95.80
2019-05-18T22:08:45.335Z,96.00
2019-05-18T22:12:48.785Z,96.70
2019-05-18T22:16:52.243Z,97.60
2019-05-18T22:20:55.961Z,96.10
2019-05-18T22:25:00.752Z,96.50
2019-05-18T22:29:04.220Z,96.40
2019-05-18T22:33:07.733Z,96.70
2019-05-18T22:37:11.238Z,96.80
2019-05-18T22:41:14.970Z,96.60
2019-05-18T22:45:18.421Z,96.80
2019-05-18T22:49:22.149Z,97.10
2019-05-18T22:53:25.601Z,96.70
2019-05-18T22:57:29.059Z,97.20
2019-05-18T23:01:32.593Z,98.10
2019-05-18T23:05:36.051Z,98.10
2019-05-18T23:09:39.788Z,97.90
2019-05-18T23:13:43.906Z,97.90
2019-05-18T23:17:47.636Z,97.90
2019-05-18T23:21:51.120Z,97.40
2019-05-18T23:25:54.668Z,97.00
2019-05-18T23:29:58.438Z,97.00
2019-05-18T23:34:01.912Z,97.40
2019-05-18T23:38:05.457Z,97.30
2019-05-18T23:42:08.977Z,97.90
2019-05-18T23:46:12.432Z,98.50
2019-05-18T23:50:16.147Z,98.40
2019-05-18T23:54:19.847Z,97.40
2019-05-18T23:58:23.587Z,97.10
